Time;durP1;ratioP1;P1;durP2;ratioP2;P2;SDS_P1;SDS_P2;PMS_P1;PMS_P2;Temp;Humidity;BMP_temperature;BMP_pressure;BME280_temperature;BME280_humidity;BME280_pressure;Samples;Min_cycle;Max_cycle;Signal;HPM_P1;HPM_P2
2022/04/26 03:37:12;;;;;;;1.53;0.40;;;8.70;99.90;;;;;;5035551;28;20457;-86
2022/04/26 03:39:39;;;;;;;0.37;0.37;;;8.70;99.90;;;;;;5035460;28;20482;-85
2022/04/26 03:42:06;;;;;;;0.73;0.60;;;8.70;99.90;;;;;;5035294;28;20463;-85
2022/04/26 03:44:33;;;;;;;0.40;0.40;;;8.70;99.90;;;;;;5035319;28;20451;-86
2022/04/26 03:47:00;;;;;;;1.70;0.60;;;8.70;99.90;;;;;;5035245;28;20454;-85
2022/04/26 03:49:28;;;;;;;1.63;1.60;;;8.70;99.90;;;;;;5035906;28;20450;-85
2022/04/26 03:51:55;;;;;;;1.00;1.00;;;8.60;99.90;;;;;;5035111;28;20470;-84
2022/04/26 03:54:22;;;;;;;0.93;0.93;;;8.70;99.90;;;;;;5034854;28;20458;-83
2022/04/26 03:56:49;;;;;;;2.20;1.03;;;8.70;99.90;;;;;;5034881;28;20447;-83
2022/04/26 03:59:16;;;;;;;2.87;0.90;;;8.70;99.90;;;;;;5034835;28;20435;-83
2022/04/26 04:01:43;;;;;;;0.83;0.80;;;8.70;99.90;;;;;;5034588;28;20498;-83
2022/04/26 04:04:10;;;;;;;0.50;0.50;;;8.70;99.90;;;;;;5034941;28;20455;-83
2022/04/26 04:06:38;;;;;;;2.93;0.83;;;8.70;99.90;;;;;;5035568;28;20454;-84
2022/04/26 04:09:05;;;;;;;0.50;0.50;;;8.70;99.90;;;;;;5034945;28;20450;-83
2022/04/26 04:11:32;;;;;;;0.40;0.30;;;8.70;99.90;;;;;;5034523;28;20478;-84
2022/04/26 04:13:59;;;;;;;1.23;0.60;;;8.70;99.90;;;;;;5034789;28;20457;-83
2022/04/26 04:16:26;;;;;;;1.13;0.80;;;8.70;99.90;;;;;;5034407;28;20554;-83
2022/04/26 04:21:38;;;;;;;2.00;0.50;;;8.60;99.90;;;;;;5034599;28;20968;-83
2022/04/26 04:24:05;;;;;;;0.90;0.50;;;8.60;99.90;;;;;;5034292;28;20439;-83
2022/04/26 04:26:32;;;;;;;1.23;0.43;;;8.70;99.90;;;;;;5034503;28;20452;-83
2022/04/26 04:28:59;;;;;;;0.70;0.63;;;8.70;99.90;;;;;;5034474;28;20490;-83
2022/04/26 04:31:26;;;;;;;0.70;0.70;;;8.70;99.90;;;;;;5035026;28;20459;-85
2022/04/26 04:33:53;;;;;;;1.10;1.07;;;8.60;99.90;;;;;;5034336;28;20457;-84
2022/04/26 04:36:20;;;;;;;0.70;0.70;;;8.60;99.90;;;;;;5034258;28;20500;-84
2022/04/26 04:38:48;;;;;;;2.73;0.97;;;8.60;99.90;;;;;;5033952;28;20950;-84
2022/04/26 04:41:14;;;;;;;0.30;0.30;;;8.60;99.90;;;;;;5033904;28;20826;-84
2022/04/26 04:43:41;;;;;;;0.30;0.30;;;8.60;99.90;;;;;;5034259;28;20450;-84
2022/04/26 04:46:08;;;;;;;0.63;0.60;;;8.50;99.90;;;;;;5033878;28;20443;-85
2022/04/26 04:48:35;;;;;;;1.07;0.50;;;8.60;99.90;;;;;;5034133;28;20443;-85
2022/04/26 04:51:02;;;;;;;5.23;0.40;;;8.60;99.90;;;;;;5034069;28;20442;-85
2022/04/26 04:53:28;;;;;;;0.30;0.30;;;8.60;99.90;;;;;;5033933;28;20478;-84
2022/04/26 04:55:56;;;;;;;0.40;0.40;;;8.50;99.90;;;;;;5033670;28;20478;-84
2022/04/26 04:58:23;;;;;;;0.60;0.33;;;8.60;99.90;;;;;;5034120;28;20455;-84
2022/04/26 05:00:50;;;;;;;0.40;0.40;;;8.60;99.90;;;;;;5033721;28;20470;-84
2022/04/26 05:03:17;;;;;;;0.33;0.33;;;8.50;99.90;;;;;;5034125;28;20471;-85
2022/04/26 05:05:43;;;;;;;0.30;0.30;;;8.60;99.90;;;;;;5033789;28;20450;-85
2022/04/26 05:08:11;;;;;;;0.30;0.30;;;8.60;99.90;;;;;;5033745;28;20458;-85
2022/04/26 05:10:37;;;;;;;0.40;0.40;;;8.60;99.90;;;;;;5033688;28;20450;-85
2022/04/26 05:13:06;;;;;;;0.40;0.40;;;8.50;99.90;;;;;;5033600;28;20467;-85
2022/04/26 05:15:33;;;;;;;0.40;0.30;;;8.50;99.90;;;;;;5033676;28;20485;-85
2022/04/26 05:18:00;;;;;;;0.40;0.30;;;8.40;99.90;;;;;;5033889;28;20461;-84
2022/04/26 05:20:27;;;;;;;0.50;0.40;;;8.40;99.90;;;;;;5033268;28;20952;-85
2022/04/26 05:25:38;;;;;;;0.30;0.20;;;8.50;99.90;;;;;;5033567;28;20415;-85
2022/04/26 05:28:07;;;;;;;0.40;0.40;;;8.50;99.90;;;;;;5033464;28;20524;-85
2022/04/26 05:30:34;;;;;;;2.33;0.50;;;8.50;99.90;;;;;;5033034;28;20435;-85
2022/04/26 05:33:01;;;;;;;0.60;0.50;;;8.40;99.90;;;;;;5033216;28;20803;-85
2022/04/26 05:35:27;;;;;;;1.97;0.53;;;8.50;99.90;;;;;;5033015;28;20478;-85
2022/04/26 05:37:54;;;;;;;1.10;1.00;;;8.50;99.90;;;;;;5033229;28;20454;-85
2022/04/26 05:40:21;;;;;;;0.70;0.60;;;8.50;99.90;;;;;;5033026;28;20835;-84
2022/04/26 05:42:48;;;;;;;2.10;1.10;;;8.50;99.90;;;;;;5032950;28;20470;-85
2022/04/26 05:45:16;;;;;;;0.40;0.40;;;8.50;99.90;;;;;;5032903;28;20937;-85
2022/04/26 05:47:43;;;;;;;0.60;0.53;;;8.50;99.90;;;;;;5033248;28;20435;-85
2022/04/26 05:50:10;;;;;;;0.57;0.30;;;8.60;99.90;;;;;;5033234;28;20454;-85
2022/04/26 05:52:37;;;;;;;0.43;0.30;;;8.60;99.90;;;;;;5033049;28;20462;-85
2022/04/26 05:55:07;;;;;;;0.70;0.70;;;8.60;99.90;;;;;;5033113;28;20451;-85
2022/04/26 05:57:37;;;;;;;1.33;1.23;;;8.60;99.90;;;;;;5033193;28;20542;-85
2022/04/26 06:00:04;;;;;;;0.40;0.40;;;8.60;99.90;;;;;;5033015;28;20473;-85
2022/04/26 06:02:32;;;;;;;0.47;0.47;;;8.70;99.90;;;;;;5032520;28;20505;-85
2022/04/26 06:04:59;;;;;;;0.83;0.83;;;8.60;99.90;;;;;;5033026;28;20443;-85
2022/04/26 06:07:27;;;;;;;0.50;0.50;;;8.70;99.90;;;;;;5032654;28;20926;-85
2022/04/26 06:09:54;;;;;;;0.77;0.77;;;8.70;99.90;;;;;;5032945;28;20451;-85
2022/04/26 06:12:23;;;;;;;0.40;0.40;;;8.70;99.90;;;;;;5032539;28;20981;-85
2022/04/26 06:14:50;;;;;;;0.90;0.90;;;8.80;99.90;;;;;;5032641;28;21020;-85
2022/04/26 06:17:17;;;;;;;0.50;0.50;;;8.80;99.90;;;;;;5032886;28;20565;-85
2022/04/26 06:19:45;;;;;;;0.30;0.27;;;8.80;99.90;;;;;;5032973;28;20454;-85
2022/04/26 06:22:11;;;;;;;0.57;0.57;;;8.80;99.90;;;;;;5032518;28;20978;-85
2022/04/26 06:24:38;;;;;;;0.30;0.20;;;8.80;99.90;;;;;;5032835;28;20453;-85
2022/04/26 06:27:05;;;;;;;0.60;0.60;;;8.90;99.90;;;;;;5032607;28;20812;-85
2022/04/26 06:29:32;;;;;;;1.17;1.17;;;9.00;99.90;;;;;;5032977;28;20828;-85
2022/04/26 06:31:59;;;;;;;0.70;0.43;;;9.00;99.90;;;;;;5032775;28;20470;-85
2022/04/26 06:34:26;;;;;;;0.60;0.50;;;9.10;99.90;;;;;;5032721;28;20446;-85
2022/04/26 06:36:54;;;;;;;1.27;1.27;;;9.10;99.90;;;;;;5032689;28;20493;-85
2022/04/26 06:39:21;;;;;;;0.70;0.40;;;9.20;99.90;;;;;;5032811;28;20829;-85
2022/04/26 06:41:48;;;;;;;3.33;0.43;;;9.20;99.90;;;;;;5034761;28;20455;-85
2022/04/26 06:44:15;;;;;;;0.47;0.47;;;9.30;99.90;;;;;;5036147;28;20446;-85
2022/04/26 06:46:41;;;;;;;0.40;0.40;;;9.40;99.90;;;;;;5036266;28;20439;-84
2022/04/26 06:49:08;;;;;;;1.90;0.50;;;9.60;99.90;;;;;;5036461;28;20431;-85
2022/04/26 06:51:40;;;;;;;0.50;0.50;;;9.80;99.90;;;;;;5036014;28;20466;-84
2022/04/26 06:54:09;;;;;;;0.60;0.60;;;9.90;99.90;;;;;;5035969;28;20439;-83
2022/04/26 06:56:35;;;;;;;0.50;0.30;;;10.10;99.90;;;;;;5036227;28;20497;-84
2022/04/26 06:59:02;;;;;;;1.33;0.80;;;10.30;99.90;;;;;;5036228;28;20442;-84
2022/04/26 07:01:29;;;;;;;0.83;0.50;;;10.40;99.90;;;;;;5035716;28;20539;-82
2022/04/26 07:03:56;;;;;;;0.90;0.90;;;10.60;99.90;;;;;;5036224;28;20496;-82
2022/04/26 07:06:23;;;;;;;0.90;0.80;;;10.70;99.90;;;;;;5036267;28;20437;-83
2022/04/26 07:08:49;;;;;;;1.07;0.60;;;10.80;99.90;;;;;;5035789;28;20431;-83
2022/04/26 07:11:17;;;;;;;0.40;0.40;;;10.80;99.90;;;;;;5036286;28;20438;-83
2022/04/26 07:13:44;;;;;;;0.50;0.50;;;11.20;99.90;;;;;;5036107;28;20435;-82
2022/04/26 07:16:11;;;;;;;2.13;0.80;;;11.80;99.90;;;;;;5036483;28;20462;-84
2022/04/26 07:18:38;;;;;;;0.40;0.37;;;12.60;99.90;;;;;;5036625;28;20456;-84
2022/04/26 07:21:04;;;;;;;0.80;0.70;;;13.00;99.90;;;;;;5036230;28;20442;-83
2022/04/26 07:23:31;;;;;;;1.60;0.90;;;13.20;99.90;;;;;;5036287;28;20475;-83
2022/04/26 07:25:59;;;;;;;0.50;0.30;;;13.30;99.90;;;;;;5036175;28;20946;-83
2022/04/26 07:28:27;;;;;;;1.50;0.60;;;13.10;99.90;;;;;;5036131;28;20443;-83
2022/04/26 07:30:54;;;;;;;0.80;0.63;;;12.90;99.90;;;;;;5036189;28;20439;-83
2022/04/26 07:36:06;;;;;;;2.80;0.57;;;12.60;99.90;;;;;;5036398;28;20553;-84
2022/04/26 07:38:33;;;;;;;0.40;0.30;;;12.50;99.90;;;;;;5036445;28;20453;-84
2022/04/26 07:41:02;;;;;;;0.70;0.60;;;12.90;99.90;;;;;;5036367;28;20454;-82
2022/04/26 07:43:30;;;;;;;0.60;0.60;;;13.30;99.90;;;;;;5036209;28;20466;-83
2022/04/26 07:45:57;;;;;;;2.93;0.97;;;13.20;99.90;;;;;;5036362;28;20451;-83
2022/04/26 07:48:24;;;;;;;0.60;0.60;;;13.00;99.90;;;;;;5035709;28;20823;-84
2022/04/26 07:50:52;;;;;;;1.10;1.10;;;12.60;99.90;;;;;;5036086;28;20798;-84
2022/04/26 07:53:18;;;;;;;0.80;0.80;;;12.40;99.90;;;;;;5035222;28;20471;-84
2022/04/26 07:55:45;;;;;;;1.60;1.00;;;12.30;99.90;;;;;;5035998;28;20457;-84
2022/04/26 07:58:12;;;;;;;1.07;0.80;;;12.10;99.90;;;;;;5036268;28;20438;-84
2022/04/26 08:00:40;;;;;;;0.50;0.50;;;11.90;99.90;;;;;;5035988;28;20555;-84
2022/04/26 08:03:07;;;;;;;1.17;0.60;;;11.70;99.90;;;;;;5035658;28;20451;-84
2022/04/26 08:05:34;;;;;;;0.57;0.57;;;11.60;99.90;;;;;;5035616;28;20451;-84
2022/04/26 08:08:01;;;;;;;0.50;0.40;;;11.50;99.90;;;;;;5035543;28;20455;-85
2022/04/26 08:10:28;;;;;;;0.87;0.80;;;11.40;99.90;;;;;;5035165;28;20454;-82
2022/04/26 08:12:54;;;;;;;0.80;0.50;;;11.40;99.90;;;;;;5034726;28;20475;-82
2022/04/26 08:15:21;;;;;;;1.00;0.87;;;11.40;99.90;;;;;;5034772;28;20938;-84
2022/04/26 08:17:50;;;;;;;1.23;0.57;;;11.40;99.90;;;;;;5034513;28;20837;-82
2022/04/26 08:20:17;;;;;;;1.40;1.27;;;11.40;99.90;;;;;;5034847;28;20459;-81
2022/04/26 08:22:44;;;;;;;0.50;0.50;;;11.70;99.90;;;;;;5034668;28;20525;-82
2022/04/26 08:27:55;;;;;;;0.63;0.60;;;12.20;99.90;;;;;;5034387;28;20415;-81
2022/04/26 08:30:22;;;;;;;2.27;0.73;;;12.50;99.90;;;;;;5034097;28;20447;-81
2022/04/26 08:32:50;;;;;;;0.50;0.50;;;12.80;99.90;;;;;;5034346;28;20466;-81
2022/04/26 08:35:19;;;;;;;0.80;0.63;;;13.00;99.90;;;;;;5034412;28;20906;-82
2022/04/26 11:54:02;;;;;;;0.40;0.40;;;14.20;99.90;;;;;;4994834;28;20504;-83
2022/04/26 11:56:28;;;;;;;0.50;0.40;;;14.30;99.90;;;;;;4996365;28;20479;-83
2022/04/26 11:58:55;;;;;;;0.97;0.40;;;14.30;99.90;;;;;;4996502;28;20453;-83
2022/04/26 12:01:23;;;;;;;0.40;0.40;;;14.30;99.90;;;;;;4996041;28;20468;-83
2022/04/26 12:03:52;;;;;;;0.40;0.30;;;14.40;99.90;;;;;;4996514;28;20540;-83
2022/04/26 12:06:20;;;;;;;0.70;0.70;;;14.40;99.90;;;;;;4996282;28;20444;-83
2022/04/26 12:11:26;;;;;;;0.50;0.50;;;14.60;99.90;;;;;;5213800;22;21039;-82
2022/04/26 12:14:01;;;;;;;0.60;0.60;;;14.70;99.90;;;;;;5035000;28;20917;-81
2022/04/26 12:16:29;;;;;;;0.70;0.63;;;14.70;99.90;;;;;;5035136;28;20482;-82
2022/04/26 12:18:57;;;;;;;0.70;0.60;;;14.50;99.90;;;;;;5035299;28;20447;-82
2022/04/26 12:21:26;;;;;;;0.80;0.80;;;14.20;99.90;;;;;;5035239;28;20478;-82
2022/04/26 12:24:16;;;;;;;1.10;0.70;;;14.10;99.90;;;;;;5035173;28;20512;-83
2022/04/26 12:26:55;;;;;;;0.83;0.70;;;13.70;99.90;;;;;;5035292;28;20434;-83
2022/04/26 12:29:23;;;;;;;0.83;0.80;;;13.40;99.90;;;;;;5035271;28;20526;-82
2022/04/26 12:31:50;;;;;;;0.70;0.40;;;13.10;99.90;;;;;;5035232;28;20478;-84
2022/04/26 12:34:18;;;;;;;0.50;0.50;;;12.90;99.90;;;;;;5035356;28;20438;-84
2022/04/26 12:36:59;;;;;;;0.90;0.80;;;12.50;99.90;;;;;;5034917;28;20482;-86
2022/04/26 12:39:30;;;;;;;5.00;1.03;;;12.10;99.90;;;;;;5034841;28;20427;-84
2022/04/26 12:41:59;;;;;;;0.60;0.60;;;11.60;99.90;;;;;;5034767;28;20574;-84
2022/04/26 12:44:26;;;;;;;0.60;0.50;;;11.20;99.90;;;;;;5034416;28;20443;-84
2022/04/26 12:52:45;;;;;;;1.63;0.37;;;9.20;99.90;;;;;;5034048;28;20461;-85
2022/04/26 12:55:12;;;;;;;0.37;0.30;;;8.80;99.90;;;;;;5034175;28;20431;-85
2022/04/26 12:57:51;;;;;;;0.40;0.40;;;8.60;99.90;;;;;;5033933;28;20489;-85
2022/04/26 13:00:20;;;;;;;2.60;0.60;;;8.60;99.90;;;;;;5033985;28;20441;-85
2022/04/26 13:02:48;;;;;;;0.77;0.73;;;8.70;99.90;;;;;;5032214;28;20478;-85
2022/04/26 13:05:16;;;;;;;2.00;0.50;;;8.80;99.90;;;;;;5032856;28;20431;-85
2022/04/26 13:07:43;;;;;;;0.40;0.40;;;9.00;99.90;;;;;;5033085;28;20878;-85
2022/04/26 13:10:10;;;;;;;0.30;0.30;;;9.10;99.90;;;;;;5032144;28;20479;-85
2022/04/26 13:12:37;;;;;;;0.50;0.50;;;9.20;99.90;;;;;;5033525;28;20475;-85
2022/04/26 13:17:47;;;;;;;1.53;0.50;;;9.70;99.90;;;;;;5359417;22;20961;-74
2022/04/26 13:20:13;;;;;;;0.30;0.30;;;9.90;99.90;;;;;;5033598;28;20442;-74
2022/04/26 13:22:40;;;;;;;3.57;0.80;;;10.10;99.90;;;;;;5033206;28;21012;-74
2022/04/26 13:25:09;;;;;;;0.73;0.73;;;10.30;99.90;;;;;;5033559;28;20434;-74
2022/04/26 13:27:37;;;;;;;0.63;0.50;;;10.40;99.90;;;;;;5033579;28;20471;-74
2022/04/26 13:30:06;;;;;;;2.10;0.50;;;10.50;99.90;;;;;;5033598;28;20489;-74
2022/04/26 13:32:33;;;;;;;1.27;0.50;;;10.30;99.90;;;;;;5033437;28;20473;-74
2022/04/26 13:35:05;;;;;;;0.30;0.30;;;10.20;99.90;;;;;;5033494;28;20427;-74
2022/04/26 13:37:32;;;;;;;0.30;0.30;;;10.10;99.90;;;;;;5033131;28;20557;-74
2022/04/26 13:40:00;;;;;;;0.80;0.80;;;10.10;99.90;;;;;;5033023;28;20451;-74
2022/04/26 16:54:06;;;;;;;0.40;0.30;;;10.50;99.90;;;;;;6002275;23;20425;-82
2022/04/26 16:56:35;;;;;;;0.50;0.30;;;10.40;99.90;;;;;;5033769;28;20457;-82
2022/04/26 16:59:03;;;;;;;1.03;0.40;;;10.40;99.90;;;;;;5034056;28;20459;-82
2022/04/26 17:01:30;;;;;;;0.30;0.20;;;10.50;99.90;;;;;;5033996;28;20525;-82
2022/04/26 17:03:57;;;;;;;0.40;0.30;;;10.50;99.90;;;;;;5033844;28;20823;-82
2022/04/26 17:06:24;;;;;;;0.30;0.30;;;10.40;99.90;;;;;;5034153;28;20477;-82
2022/04/26 17:08:51;;;;;;;0.53;0.40;;;10.40;99.90;;;;;;5033885;28;20454;-83
2022/04/26 17:14:03;;;;;;;0.30;0.30;;;10.20;99.90;;;;;;5033689;28;20466;-83
2022/04/26 17:16:30;;;;;;;1.03;0.37;;;10.10;99.90;;;;;;5033780;28;20450;-83
2022/04/26 17:18:56;;;;;;;0.30;0.30;;;10.00;99.90;;;;;;5033683;28;20482;-82
2022/04/26 17:21:24;;;;;;;0.40;0.40;;;9.90;99.90;;;;;;5033649;28;20470;-83
2022/04/26 17:23:51;;;;;;;2.40;1.73;;;9.90;99.90;;;;;;5033597;28;20551;-83
2022/04/26 17:26:19;;;;;;;0.30;0.30;;;9.90;99.90;;;;;;5032743;28;20450;-83
2022/04/26 17:28:46;;;;;;;0.30;0.20;;;9.80;99.90;;;;;;5033629;28;20446;-83
2022/04/26 17:31:14;;;;;;;1.13;0.50;;;9.80;99.90;;;;;;5033447;28;20550;-83
2022/04/26 17:33:41;;;;;;;0.40;0.30;;;9.80;99.90;;;;;;5033511;28;20861;-83
2022/04/26 17:36:08;;;;;;;1.00;0.40;;;9.80;99.90;;;;;;5033500;28;20434;-82
2022/04/26 17:38:35;;;;;;;1.37;0.40;;;9.70;99.90;;;;;;5033310;28;20509;-83
2022/04/26 17:41:02;;;;;;;0.30;0.20;;;9.70;99.90;;;;;;5033400;28;20470;-83
2022/04/26 17:43:30;;;;;;;2.50;0.60;;;9.60;99.90;;;;;;5033360;28;20454;-83
2022/04/26 17:45:57;;;;;;;0.40;0.40;;;9.50;99.90;;;;;;5033351;28;20457;-83
2022/04/26 17:48:23;;;;;;;0.50;0.30;;;9.50;99.90;;;;;;5033267;28;20459;-83
2022/04/26 17:50:50;;;;;;;0.50;0.30;;;9.50;99.90;;;;;;5032944;28;20966;-83
2022/04/26 17:58:47;;;;;;;0.47;0.47;;;9.50;99.90;;;;;;5033294;28;20458;-83
2022/04/26 18:01:15;;;;;;;0.53;0.37;;;9.40;99.90;;;;;;5032804;28;20455;-83
2022/04/26 18:03:42;;;;;;;0.73;0.40;;;9.50;99.90;;;;;;5033170;28;20458;-83
2022/04/26 18:06:10;;;;;;;0.50;0.30;;;9.50;99.90;;;;;;5033022;28;20455;-83
2022/04/26 18:08:38;;;;;;;2.30;0.40;;;9.40;99.90;;;;;;5032847;28;20960;-83
2022/04/26 18:11:05;;;;;;;0.30;0.30;;;9.40;99.90;;;;;;5033028;28;20506;-83
2022/04/26 18:13:32;;;;;;;0.30;0.30;;;9.40;99.90;;;;;;5032777;28;20898;-83
2022/04/26 18:16:01;;;;;;;0.30;0.30;;;9.40;99.90;;;;;;5032818;28;20439;-83
2022/04/26 18:18:31;;;;;;;0.30;0.30;;;9.40;99.90;;;;;;5032684;28;20487;-83
2022/04/26 18:20:58;;;;;;;0.37;0.37;;;9.40;99.90;;;;;;5032937;28;20478;-83
2022/04/26 18:23:26;;;;;;;1.27;0.50;;;9.40;99.90;;;;;;5033087;28;20439;-82
2022/04/26 18:28:39;;;;;;;0.60;0.40;;;9.40;99.90;;;;;;5033034;28;20403;-83
2022/04/26 18:31:07;;;;;;;0.60;0.40;;;9.40;99.90;;;;;;5032553;28;21013;-82
2022/04/26 18:33:35;;;;;;;0.40;0.30;;;9.40;99.90;;;;;;5032902;28;20450;-83
2022/04/26 18:36:04;;;;;;;0.57;0.57;;;9.40;99.90;;;;;;5032939;28;20446;-83
2022/04/26 18:38:30;;;;;;;0.30;0.30;;;9.30;99.90;;;;;;5035886;28;21012;-83
2022/04/26 18:40:58;;;;;;;1.17;0.93;;;9.20;99.90;;;;;;5036648;28;20481;-83
2022/04/26 18:43:25;;;;;;;0.40;0.40;;;9.10;99.90;;;;;;5037379;28;20859;-83
2022/04/26 18:45:51;;;;;;;0.40;0.30;;;9.00;99.90;;;;;;5036363;28;20449;-83
2022/04/26 18:48:20;;;;;;;0.30;0.30;;;8.90;99.90;;;;;;5036583;28;20446;-83
2022/04/26 18:50:46;;;;;;;0.87;0.40;;;8.90;99.90;;;;;;5036426;28;20446;-83
2022/04/26 18:53:14;;;;;;;0.30;0.30;;;8.80;99.90;;;;;;5036606;28;20442;-83
2022/04/26 18:55:42;;;;;;;0.63;0.30;;;8.80;99.90;;;;;;5036144;28;20561;-82
2022/04/26 18:58:11;;;;;;;0.30;0.30;;;8.80;99.90;;;;;;5036383;28;20485;-82
2022/04/26 19:16:11;;;;;;;0.30;0.30;;;8.30;99.90;;;;;;5475847;22;20474;-77
2022/04/26 22:33:29;;;;;;;0.47;0.40;;;7.80;99.90;;;;;;6061629;23;20467;-75
2022/04/26 22:35:55;;;;;;;0.30;0.30;;;7.80;99.90;;;;;;5036802;28;20426;-75
2022/04/26 22:38:22;;;;;;;0.80;0.30;;;7.80;99.90;;;;;;5036584;28;20508;-75
2022/04/26 22:40:50;;;;;;;0.30;0.20;;;7.80;99.90;;;;;;5036586;28;20453;-77
2022/04/26 22:43:17;;;;;;;1.50;0.40;;;7.80;99.90;;;;;;5036622;28;20529;-78
2022/04/26 22:45:44;;;;;;;1.00;0.30;;;7.70;99.90;;;;;;5036207;28;20461;-75
2022/04/26 22:48:11;;;;;;;0.30;0.30;;;7.70;99.90;;;;;;5036506;28;20469;-77
2022/04/26 22:50:39;;;;;;;0.40;0.30;;;7.70;99.90;;;;;;5036422;28;20442;-76
2022/04/26 22:53:05;;;;;;;0.40;0.40;;;7.70;99.90;;;;;;5036158;28;20477;-76
2022/04/26 22:55:32;;;;;;;0.30;0.30;;;7.70;99.90;;;;;;5036405;28;20450;-76
2022/04/26 22:57:59;;;;;;;0.50;0.30;;;7.70;99.90;;;;;;5036228;28;20482;-76
2022/04/26 23:00:26;;;;;;;0.30;0.30;;;7.70;99.90;;;;;;5035996;28;20443;-76
2022/04/26 23:02:52;;;;;;;0.40;0.30;;;7.70;99.90;;;;;;5036170;28;20474;-77
2022/04/26 23:05:19;;;;;;;0.70;0.70;;;7.70;99.90;;;;;;5036895;28;20799;-77
2022/04/26 23:07:47;;;;;;;0.40;0.30;;;7.70;99.90;;;;;;5036178;28;20442;-76
2022/04/26 23:10:14;;;;;;;0.30;0.30;;;7.70;99.90;;;;;;5035863;28;20449;-79
2022/04/26 23:12:41;;;;;;;0.60;0.40;;;7.60;99.90;;;;;;5036026;28;20474;-78
2022/04/26 23:15:08;;;;;;;1.47;1.47;;;7.60;99.90;;;;;;5036083;28;20446;-78
2022/04/26 23:17:34;;;;;;;0.40;0.40;;;7.60;99.90;;;;;;5035891;28;20455;-76
2022/04/26 23:20:01;;;;;;;0.40;0.40;;;7.60;99.90;;;;;;5035658;28;20442;-76
2022/04/26 23:22:28;;;;;;;0.33;0.33;;;7.70;99.90;;;;;;5035867;28;20463;-77
2022/04/26 23:24:56;;;;;;;0.30;0.30;;;7.60;99.90;;;;;;5034508;28;20446;-77
2022/04/26 23:27:23;;;;;;;0.40;0.30;;;7.60;99.90;;;;;;5035764;28;20454;-77
2022/04/26 23:29:49;;;;;;;1.03;0.40;;;7.60;99.90;;;;;;5035766;28;20442;-76
2022/04/26 23:32:16;;;;;;;0.30;0.30;;;7.60;99.90;;;;;;5035634;28;20511;-77
2022/04/26 23:37:27;;;;;;;0.43;0.43;;;7.70;99.90;;;;;;5035638;28;20401;-76
2022/04/26 23:39:55;;;;;;;0.50;0.50;;;7.70;99.90;;;;;;5035489;28;20517;-77
2022/04/26 23:42:22;;;;;;;2.10;0.73;;;7.70;99.90;;;;;;5035160;28;20981;-77
2022/04/26 23:44:50;;;;;;;0.67;0.60;;;7.70;99.90;;;;;;5035138;28;20942;-76
2022/04/26 23:47:17;;;;;;;0.30;0.30;;;7.70;99.90;;;;;;5035459;28;20461;-77
2022/04/26 23:49:44;;;;;;;0.70;0.40;;;7.70;99.90;;;;;;5035604;28;20436;-77
2022/04/26 23:54:57;;;;;;;0.30;0.20;;;7.70;99.90;;;;;;5035467;28;20403;-76
2022/04/26 23:57:24;;;;;;;0.30;0.30;;;7.70;99.90;;;;;;5035029;28;20781;-76
2022/04/26 23:59:50;;;;;;;0.40;0.40;;;7.70;99.90;;;;;;5035052;28;20478;-76
